Weather Data

Pearl Creek Farm: 8878 N Farm Road 75, Walnut Grove MO 65770

<== Previous Day (Friday 06 Mar 2009) | Next Day (Sunday 08 Mar 2009) ==>

Summary Precipitation Data For Saturday 07 March 2009

ElementValueUnits
Precipitation0"
Notes(none)
SourceSpringfield-Branson National Airport (SGF)

Summary Temperature Data For Saturday 07 March 2009

ElementValueUnits
High Temperature71 oF
Low Temperature62 oF
Average Temperature65 oF
High Humidity73 %
Low Humidity49 %
Average Humidity64 %
SourceSpringfield-Branson National Airport (SGF)

Detail Temperature Data For Saturday 07 March 2009

Date / TimeTemp (F)RH (%)Dew Pt (F)Report Date / TimeSource
2009-03-07 09:52:00 68 55 51.0 2017-12-29 19:14:24.89625 Springfield-Branson National Airport (SGF)
2009-03-07 10:52:00 71 49 51.0 2017-12-29 19:14:24.89625 Springfield-Branson National Airport (SGF)
2009-03-07 11:52:00 69 55 52.0 2017-12-29 19:14:24.89625 Springfield-Branson National Airport (SGF)
2009-03-07 12:52:00 68 59 53.0 2017-12-29 19:14:24.89625 Springfield-Branson National Airport (SGF)
2009-03-07 13:52:00 68 59 53.0 2017-12-29 19:14:24.89625 Springfield-Branson National Airport (SGF)
2009-03-07 14:52:00 69 59 54.0 2017-12-29 19:14:24.89625 Springfield-Branson National Airport (SGF)
2009-03-07 15:52:00 68 61 54.0 2017-12-29 19:14:24.89625 Springfield-Branson National Airport (SGF)
2009-03-07 16:52:00 67 63 54.0 2017-12-29 19:14:24.89625 Springfield-Branson National Airport (SGF)
2009-03-07 17:52:00 66 65 54.0 2017-12-29 19:14:24.89625 Springfield-Branson National Airport (SGF)
2009-03-07 18:52:00 66 63 53.0 2017-12-29 19:14:24.89625 Springfield-Branson National Airport (SGF)
2009-03-07 00:52:00 63 68 52.0 2017-12-29 19:14:24.89625 Springfield-Branson National Airport (SGF)
2009-03-07 01:52:00 62 70 52.0 2017-12-29 19:14:24.89625 Springfield-Branson National Airport (SGF)
2009-03-07 02:52:00 63 68 52.0 2017-12-29 19:14:24.89625 Springfield-Branson National Airport (SGF)
2009-03-07 03:52:00 62 73 53.0 2017-12-29 19:14:24.89625 Springfield-Branson National Airport (SGF)
2009-03-07 04:52:00 62 73 53.0 2017-12-29 19:14:24.89625 Springfield-Branson National Airport (SGF)
2009-03-07 05:52:00 62 73 53.0 2017-12-29 19:14:24.89625 Springfield-Branson National Airport (SGF)
2009-03-07 06:52:00 62 73 53.0 2017-12-29 19:14:24.89625 Springfield-Branson National Airport (SGF)
2009-03-07 07:52:00 63 68 52.0 2017-12-29 19:14:24.89625 Springfield-Branson National Airport (SGF)
2009-03-07 08:52:00 65 61 51.0 2017-12-29 19:14:24.89625 Springfield-Branson National Airport (SGF)
2009-03-07 19:52:00 65 66 53.0 2017-12-29 19:14:24.89625 Springfield-Branson National Airport (SGF)
2009-03-07 20:52:00 64 65 52.0 2017-12-29 19:14:24.89625 Springfield-Branson National Airport (SGF)
2009-03-07 21:52:00 64 65 52.0 2017-12-29 19:14:24.89625 Springfield-Branson National Airport (SGF)
2009-03-07 22:52:00 64 65 52.0 2017-12-29 19:14:24.89625 Springfield-Branson National Airport (SGF)
2009-03-07 23:52:00 63 65 51.0 2017-12-29 19:14:24.89625 Springfield-Branson National Airport (SGF)

A total of 24 rows are displayed.